Time;durP1;ratioP1;P1;durP2;ratioP2;P2;SDS_P1;SDS_P2;PMS_P1;PMS_P2;Temp;Humidity;BMP_temperature;BMP_pressure;BME280_temperature;BME280_humidity;BME280_pressure;Samples;Min_cycle;Max_cycle;Signal;HPM_P1;HPM_P2
2023/10/24 00:02:08;;;;;;;7.07;2.45;;;15.60;99.90;;;;;;5039842;28;20037;-79
2023/10/24 00:04:34;;;;;;;6.47;2.22;;;15.60;99.90;;;;;;5033159;28;20037;-78
2023/10/24 00:07:00;;;;;;;5.43;2.55;;;15.60;99.90;;;;;;5036849;28;20040;-78
2023/10/24 00:09:25;;;;;;;7.18;2.47;;;15.60;99.90;;;;;;5038131;28;20113;-78
2023/10/24 00:11:51;;;;;;;10.10;2.63;;;15.60;99.90;;;;;;5039096;28;20021;-78
2023/10/24 00:14:17;;;;;;;6.30;2.65;;;15.60;99.90;;;;;;5037836;28;20471;-78
2023/10/24 00:16:43;;;;;;;4.25;2.22;;;15.60;99.90;;;;;;5034222;28;20025;-78
2023/10/24 00:19:08;;;;;;;7.15;2.42;;;15.60;99.90;;;;;;5040194;28;20021;-78
2023/10/24 00:21:34;;;;;;;5.55;2.30;;;15.60;99.90;;;;;;5038015;28;20030;-78
2023/10/24 00:24:00;;;;;;;6.88;2.42;;;15.60;99.90;;;;;;5038523;28;20068;-79
2023/10/24 00:26:25;;;;;;;6.28;2.40;;;15.50;99.90;;;;;;5039653;28;20052;-78
2023/10/24 00:28:51;;;;;;;6.50;2.42;;;15.60;99.90;;;;;;5038022;28;20078;-78
2023/10/24 00:31:16;;;;;;;4.95;2.30;;;15.50;99.90;;;;;;5039558;28;20033;-78
2023/10/24 00:33:42;;;;;;;6.70;2.38;;;15.50;99.90;;;;;;5038202;28;20120;-78
2023/10/24 00:36:08;;;;;;;4.50;2.33;;;15.50;99.90;;;;;;5036824;28;20081;-78
2023/10/24 00:38:34;;;;;;;3.63;2.15;;;15.60;99.90;;;;;;5039433;28;20025;-78
2023/10/24 00:41:14;;;;;;;8.40;2.35;;;15.60;99.90;;;;;;5005025;28;20101;-78
2023/10/24 00:43:40;;;;;;;4.50;1.92;;;15.60;99.90;;;;;;5050995;27;20027;-78
2023/10/24 00:46:07;;;;;;;5.90;2.22;;;15.60;99.90;;;;;;5040031;28;20052;-78
2023/10/24 00:48:33;;;;;;;8.02;2.50;;;15.60;99.90;;;;;;5038302;28;20040;-78
2023/10/24 00:51:00;;;;;;;4.55;2.20;;;15.60;99.90;;;;;;5038736;28;20070;-78
2023/10/24 00:53:26;;;;;;;6.10;2.70;;;15.60;99.90;;;;;;5038924;28;20081;-78
2023/10/24 00:55:52;;;;;;;8.93;2.40;;;15.60;99.90;;;;;;5036033;28;20017;-78
2023/10/24 00:58:18;;;;;;;6.15;2.15;;;15.70;99.90;;;;;;5038639;28;20480;-78
2023/10/24 01:00:45;;;;;;;4.40;2.33;;;15.70;99.90;;;;;;5037214;28;20031;-78
2023/10/24 01:03:13;;;;;;;6.78;2.42;;;15.70;99.90;;;;;;5037866;28;20481;-79
2023/10/24 01:05:39;;;;;;;6.85;2.40;;;15.70;99.90;;;;;;5038972;28;20035;-78
2023/10/24 01:08:05;;;;;;;3.35;2.00;;;15.80;99.90;;;;;;5036376;28;20026;-78
2023/10/24 01:10:30;;;;;;;5.25;1.90;;;15.80;99.90;;;;;;5038898;28;20047;-78
2023/10/24 01:12:56;;;;;;;9.88;2.15;;;15.90;99.90;;;;;;5039005;28;20575;-78
2023/10/24 01:15:22;;;;;;;2.72;2.00;;;15.80;99.90;;;;;;5035617;28;20457;-78
2023/10/24 01:17:51;;;;;;;7.53;2.38;;;15.90;99.90;;;;;;5036931;28;20022;-78
2023/10/24 01:20:18;;;;;;;5.50;2.13;;;15.90;99.90;;;;;;5039154;28;20108;-78
2023/10/24 01:22:46;;;;;;;4.03;2.22;;;15.80;99.90;;;;;;5038886;28;20064;-78
2023/10/24 01:25:14;;;;;;;5.00;1.98;;;15.80;99.90;;;;;;5036924;28;20025;-78
2023/10/24 01:27:45;;;;;;;4.78;2.20;;;15.80;99.90;;;;;;5046796;28;20033;-78
2023/10/24 01:30:12;;;;;;;4.72;2.03;;;15.80;99.90;;;;;;5038272;28;20025;-78
2023/10/24 01:32:38;;;;;;;4.20;1.95;;;15.90;99.90;;;;;;5038317;28;20025;-78
2023/10/24 01:35:05;;;;;;;5.53;2.25;;;15.90;99.90;;;;;;5036639;28;20081;-78
2023/10/24 01:37:31;;;;;;;5.78;2.28;;;15.90;99.90;;;;;;5037828;28;20045;-78
2023/10/24 01:39:56;;;;;;;4.55;1.92;;;15.90;99.90;;;;;;5036740;28;20036;-79
2023/10/24 01:42:22;;;;;;;6.00;2.25;;;15.90;99.90;;;;;;5037718;28;20066;-78
2023/10/24 01:44:47;;;;;;;3.33;1.85;;;16.00;99.90;;;;;;5034629;28;20500;-78
2023/10/24 01:47:13;;;;;;;3.33;2.30;;;16.00;99.90;;;;;;5031498;28;20365;-78
2023/10/24 01:49:39;;;;;;;5.18;2.03;;;16.00;99.90;;;;;;5037031;28;20041;-78
2023/10/24 01:52:04;;;;;;;6.05;2.17;;;16.00;99.90;;;;;;5036773;28;20547;-78
2023/10/24 01:54:30;;;;;;;3.47;1.65;;;16.00;99.90;;;;;;5037579;28;20032;-78
2023/10/24 01:56:56;;;;;;;6.60;2.40;;;16.00;99.90;;;;;;5035411;28;20021;-79
2023/10/24 01:59:21;;;;;;;7.60;2.30;;;16.00;99.90;;;;;;5036218;28;20158;-79
2023/10/24 02:01:47;;;;;;;3.75;2.25;;;16.10;99.90;;;;;;5042382;28;20025;-78
2023/10/24 02:04:13;;;;;;;4.53;1.90;;;16.10;99.90;;;;;;5040596;28;20034;-79
2023/10/24 02:06:38;;;;;;;7.45;1.80;;;16.10;99.90;;;;;;5044434;28;20025;-79
2023/10/24 02:09:04;;;;;;;5.63;2.15;;;16.10;99.90;;;;;;5038692;28;20202;-79
2023/10/24 02:11:30;;;;;;;6.55;2.28;;;16.10;99.90;;;;;;5042803;28;20025;-78
2023/10/24 02:13:55;;;;;;;6.20;1.90;;;16.10;99.90;;;;;;5038228;28;20415;-78
2023/10/24 02:16:21;;;;;;;4.90;1.85;;;16.20;99.90;;;;;;5040636;28;20480;-79
2023/10/24 02:18:47;;;;;;;5.40;1.90;;;16.20;99.90;;;;;;5039108;28;20021;-78
2023/10/24 02:21:12;;;;;;;4.07;1.75;;;16.20;99.90;;;;;;5043022;28;20392;-78
2023/10/24 02:23:38;;;;;;;6.35;2.22;;;16.20;99.90;;;;;;5039178;28;20377;-78
2023/10/24 02:26:04;;;;;;;5.30;2.08;;;16.20;99.90;;;;;;5041974;28;20476;-78
2023/10/24 02:28:29;;;;;;;4.75;2.40;;;16.20;99.90;;;;;;5040282;28;20429;-79
2023/10/24 02:30:55;;;;;;;2.28;2.00;;;16.20;99.90;;;;;;5039097;28;20090;-78
2023/10/24 02:33:21;;;;;;;5.78;1.80;;;16.20;99.90;;;;;;5042755;28;20072;-79
2023/10/24 02:35:46;;;;;;;2.92;2.13;;;16.20;99.90;;;;;;5038503;28;20523;-79
2023/10/24 02:38:12;;;;;;;4.47;1.98;;;16.20;99.90;;;;;;5040427;28;20112;-78
2023/10/24 02:40:38;;;;;;;3.97;1.80;;;16.30;99.90;;;;;;5040218;28;20033;-78
2023/10/24 02:43:03;;;;;;;4.50;1.80;;;16.30;99.90;;;;;;5040004;28;20565;-79
2023/10/24 02:45:29;;;;;;;4.40;2.30;;;16.20;99.90;;;;;;5038858;28;20033;-78
2023/10/24 02:47:54;;;;;;;7.53;2.20;;;16.20;99.90;;;;;;5038382;28;20029;-78
2023/10/24 02:50:20;;;;;;;4.80;2.28;;;16.30;99.90;;;;;;5040038;28;20128;-78
2023/10/24 02:52:46;;;;;;;4.03;1.83;;;16.30;99.90;;;;;;5039929;28;20112;-78
2023/10/24 02:55:11;;;;;;;5.28;2.10;;;16.30;99.90;;;;;;5039608;28;20033;-78
2023/10/24 02:57:37;;;;;;;4.68;2.33;;;16.20;99.90;;;;;;5042431;28;20029;-78
2023/10/24 03:00:03;;;;;;;8.68;2.47;;;16.20;99.90;;;;;;5038244;28;20031;-78
2023/10/24 03:02:29;;;;;;;5.05;2.17;;;16.20;99.90;;;;;;5042659;28;20025;-78
2023/10/24 03:04:56;;;;;;;4.00;2.10;;;16.30;99.90;;;;;;5038972;28;20037;-77
2023/10/24 03:07:23;;;;;;;5.68;2.00;;;16.30;99.90;;;;;;5037050;28;20033;-78
2023/10/24 03:09:49;;;;;;;3.42;1.80;;;16.30;99.90;;;;;;5033510;28;20064;-78
2023/10/24 03:12:15;;;;;;;4.30;2.28;;;16.30;99.90;;;;;;5039776;28;20021;-78
2023/10/24 03:14:41;;;;;;;5.88;2.30;;;16.30;99.90;;;;;;5037068;28;20396;-78
2023/10/24 03:17:08;;;;;;;3.28;2.10;;;16.30;99.90;;;;;;5036852;28;20065;-78
2023/10/24 03:19:33;;;;;;;5.97;2.45;;;16.30;99.90;;;;;;5041977;28;20069;-78
2023/10/24 03:22:00;;;;;;;8.18;2.95;;;16.30;99.90;;;;;;5039316;28;20037;-78
2023/10/24 03:24:28;;;;;;;5.65;2.85;;;16.20;99.90;;;;;;5038776;28;20052;-77
2023/10/24 03:26:54;;;;;;;7.47;3.13;;;16.30;99.90;;;;;;5038012;28;20033;-78
2023/10/24 03:29:20;;;;;;;5.95;2.53;;;16.20;99.90;;;;;;5040706;28;20434;-78
2023/10/24 03:31:45;;;;;;;3.80;2.83;;;16.20;99.90;;;;;;5040238;28;20057;-78
2023/10/24 03:34:11;;;;;;;8.02;3.22;;;16.30;99.90;;;;;;5038094;28;20028;-78
2023/10/24 03:36:37;;;;;;;6.70;3.15;;;16.30;99.90;;;;;;5039713;28;20101;-78
2023/10/24 03:39:03;;;;;;;3.88;2.90;;;16.20;99.90;;;;;;5040378;28;20044;-78
2023/10/24 03:41:28;;;;;;;3.60;2.97;;;16.20;99.90;;;;;;5041605;28;20033;-78
2023/10/24 03:43:54;;;;;;;8.18;3.15;;;16.20;99.90;;;;;;5037736;28;20078;-78
2023/10/24 03:46:20;;;;;;;4.88;3.55;;;16.20;99.90;;;;;;5038307;28;20572;-78
2023/10/24 03:48:45;;;;;;;6.90;2.70;;;16.20;99.90;;;;;;5038174;28;20025;-78
2023/10/24 03:51:11;;;;;;;5.90;2.80;;;16.20;99.90;;;;;;5037323;28;20539;-78
2023/10/24 03:53:38;;;;;;;4.72;2.47;;;16.30;99.90;;;;;;5034890;28;20051;-78
2023/10/24 03:56:07;;;;;;;4.93;2.53;;;16.30;99.90;;;;;;5037788;28;20025;-78
2023/10/24 03:58:32;;;;;;;7.50;2.88;;;16.30;99.90;;;;;;5038489;28;20049;-78
2023/10/24 04:01:04;;;;;;;5.13;2.60;;;16.30;99.90;;;;;;5039293;28;20702;-78
2023/10/24 04:03:30;;;;;;;6.82;2.70;;;16.30;99.90;;;;;;5033491;28;20434;-78
2023/10/24 04:05:56;;;;;;;6.50;2.78;;;16.30;99.90;;;;;;5038795;28;20483;-78
2023/10/24 04:08:21;;;;;;;4.40;2.60;;;16.40;99.90;;;;;;5038691;28;20033;-78
2023/10/24 04:10:47;;;;;;;8.32;2.92;;;16.40;99.90;;;;;;5037070;28;20037;-78
2023/10/24 04:13:12;;;;;;;5.00;2.47;;;16.40;99.90;;;;;;5041389;28;20086;-78
2023/10/24 04:15:38;;;;;;;6.78;3.13;;;16.40;99.90;;;;;;5035834;28;20033;-78
2023/10/24 04:18:04;;;;;;;12.88;3.15;;;16.40;99.90;;;;;;5039008;28;20026;-78
2023/10/24 04:20:31;;;;;;;5.85;2.85;;;16.40;99.90;;;;;;5036799;28;20029;-78
2023/10/24 04:23:02;;;;;;;4.10;2.25;;;16.40;99.90;;;;;;5040818;28;20111;-78
2023/10/24 04:25:30;;;;;;;2.93;2.70;;;16.40;99.90;;;;;;5018820;28;20041;-78
2023/10/24 04:27:56;;;;;;;8.10;2.85;;;16.50;99.90;;;;;;5039501;28;20277;-78
2023/10/24 04:30:22;;;;;;;7.30;2.83;;;16.50;99.90;;;;;;5040019;28;20021;-78
2023/10/24 04:32:52;;;;;;;5.95;3.35;;;16.40;99.90;;;;;;5037695;28;20392;-78
2023/10/24 04:35:18;;;;;;;12.02;3.40;;;16.50;99.90;;;;;;5038674;28;20082;-78
2023/10/24 04:37:46;;;;;;;7.05;3.15;;;16.50;99.90;;;;;;5038080;28;20030;-77
2023/10/24 04:40:12;;;;;;;6.93;2.22;;;16.50;99.90;;;;;;5037681;28;20021;-77
2023/10/24 04:42:37;;;;;;;9.95;3.15;;;16.50;99.90;;;;;;5037583;28;20377;-78
2023/10/24 04:45:03;;;;;;;6.60;2.90;;;16.60;99.90;;;;;;5039071;28;20025;-78
2023/10/24 04:47:29;;;;;;;6.97;2.88;;;16.50;99.90;;;;;;5037448;28;20175;-78
2023/10/24 04:49:54;;;;;;;9.55;2.58;;;16.60;99.90;;;;;;5038408;28;20443;-77
2023/10/24 04:52:20;;;;;;;5.18;2.55;;;16.60;99.90;;;;;;5038981;28;20384;-77
2023/10/24 04:54:46;;;;;;;8.20;3.35;;;16.60;99.90;;;;;;5035477;28;20032;-77
2023/10/24 04:57:12;;;;;;;8.05;2.78;;;16.60;99.90;;;;;;5036878;28;20021;-77
2023/10/24 04:59:38;;;;;;;7.85;2.60;;;16.60;99.90;;;;;;5038939;28;20384;-77
2023/10/24 05:02:04;;;;;;;6.13;3.75;;;16.60;99.90;;;;;;5037965;28;20029;-77
2023/10/24 05:04:29;;;;;;;8.80;3.15;;;16.50;99.90;;;;;;5037404;28;20108;-77
2023/10/24 05:06:55;;;;;;;17.15;4.18;;;16.50;99.90;;;;;;5038918;28;20411;-78
2023/10/24 05:09:21;;;;;;;7.97;3.55;;;16.50;99.90;;;;;;5035324;28;20445;-78
2023/10/24 05:11:48;;;;;;;9.40;3.28;;;16.50;99.90;;;;;;5037361;28;20025;-78
2023/10/24 05:14:14;;;;;;;6.38;3.15;;;16.50;99.90;;;;;;5035646;28;20052;-77
2023/10/24 05:16:40;;;;;;;6.28;2.75;;;16.50;99.90;;;;;;5036679;28;20028;-78
2023/10/24 05:19:06;;;;;;;8.18;3.60;;;16.50;99.90;;;;;;5038438;28;20025;-77
2023/10/24 05:21:32;;;;;;;9.98;3.22;;;16.60;99.90;;;;;;5036925;28;20066;-77
2023/10/24 05:23:59;;;;;;;7.07;3.35;;;16.50;99.90;;;;;;5036626;28;20442;-78
2023/10/24 05:26:25;;;;;;;6.28;2.53;;;16.50;99.90;;;;;;5038963;28;20025;-77
2023/10/24 05:28:50;;;;;;;5.72;2.47;;;16.50;99.90;;;;;;5038709;28;20044;-77
2023/10/24 05:31:16;;;;;;;9.25;2.75;;;16.50;99.90;;;;;;5037620;28;20041;-77
2023/10/24 05:33:41;;;;;;;8.32;2.72;;;16.50;99.90;;;;;;5043762;28;20060;-77
2023/10/24 05:36:07;;;;;;;9.85;3.50;;;16.60;99.90;;;;;;5044462;28;20049;-77
2023/10/24 05:38:33;;;;;;;7.45;3.65;;;16.60;99.90;;;;;;5042373;28;20488;-78
2023/10/24 05:41:00;;;;;;;8.15;4.63;;;16.50;99.90;;;;;;5037429;28;20060;-78
2023/10/24 05:43:26;;;;;;;6.80;4.00;;;16.50;99.90;;;;;;5043079;28;20032;-78
2023/10/24 05:45:51;;;;;;;9.68;4.28;;;16.50;99.90;;;;;;5043290;28;20029;-77
2023/10/24 05:48:17;;;;;;;5.68;4.07;;;16.50;99.90;;;;;;5044533;28;20028;-77
2023/10/24 05:50:46;;;;;;;4.97;3.75;;;16.50;99.90;;;;;;5041622;28;20488;-78
2023/10/24 05:53:12;;;;;;;7.15;3.15;;;16.50;99.90;;;;;;5044556;28;20018;-78
2023/10/24 05:55:40;;;;;;;13.27;2.80;;;16.60;99.90;;;;;;5042584;28;20362;-78
2023/10/24 05:58:06;;;;;;;5.82;2.55;;;16.60;99.90;;;;;;5044471;28;20025;-78
2023/10/24 06:00:31;;;;;;;7.15;3.10;;;16.60;99.90;;;;;;5041449;28;20033;-77
2023/10/24 06:02:57;;;;;;;9.00;3.28;;;16.60;99.90;;;;;;5042164;28;20406;-77
2023/10/24 06:05:23;;;;;;;5.57;2.85;;;16.60;99.90;;;;;;5044124;28;20021;-78
2023/10/24 06:07:48;;;;;;;7.70;3.38;;;16.50;99.90;;;;;;5043254;28;20033;-77
2023/10/24 06:10:14;;;;;;;5.90;2.80;;;16.60;99.90;;;;;;5044332;28;20492;-77
2023/10/24 06:12:40;;;;;;;4.68;2.40;;;16.60;99.90;;;;;;5042980;28;20033;-78
2023/10/24 06:15:06;;;;;;;7.05;2.38;;;16.60;99.90;;;;;;5041671;28;20120;-78
2023/10/24 06:17:33;;;;;;;5.03;2.35;;;16.60;99.90;;;;;;5043467;28;20436;-77
2023/10/24 06:19:58;;;;;;;8.13;2.40;;;16.60;99.90;;;;;;5044048;28;20171;-77
2023/10/24 06:22:25;;;;;;;7.13;2.47;;;16.60;99.90;;;;;;5041798;28;20122;-77
2023/10/24 06:24:50;;;;;;;5.47;2.53;;;16.60;99.90;;;;;;5046099;28;20544;-77
2023/10/24 06:27:16;;;;;;;2.30;2.10;;;16.60;99.90;;;;;;5042220;28;20112;-77
2023/10/24 06:29:42;;;;;;;7.97;2.33;;;16.60;99.90;;;;;;5042803;28;20416;-77
2023/10/24 06:32:08;;;;;;;2.45;1.98;;;16.60;99.90;;;;;;5043443;28;20068;-77
2023/10/24 06:34:34;;;;;;;10.63;2.33;;;16.60;99.90;;;;;;5045833;28;20028;-78
2023/10/24 06:36:59;;;;;;;7.22;2.13;;;16.60;99.90;;;;;;5045368;28;20037;-77
2023/10/24 06:39:25;;;;;;;3.72;2.50;;;16.60;99.90;;;;;;5043790;28;20541;-78
2023/10/24 06:41:50;;;;;;;2.45;2.15;;;16.60;99.90;;;;;;5042041;28;20388;-78
2023/10/24 06:44:16;;;;;;;6.53;2.47;;;16.60;99.90;;;;;;5042144;28;20025;-78
2023/10/24 06:46:42;;;;;;;3.35;2.00;;;16.60;99.90;;;;;;5042421;28;20077;-78
2023/10/24 06:49:08;;;;;;;5.28;2.15;;;16.60;99.90;;;;;;5039485;28;20030;-78
2023/10/24 06:51:34;;;;;;;4.10;1.55;;;16.60;99.90;;;;;;5040057;28;20044;-78
2023/10/24 06:53:59;;;;;;;2.75;1.65;;;16.50;99.90;;;;;;5039825;28;20053;-78
2023/10/24 06:56:25;;;;;;;4.38;1.90;;;16.60;99.90;;;;;;5039643;28;20021;-78
2023/10/24 06:58:51;;;;;;;3.78;1.83;;;16.60;99.90;;;;;;5041137;28;20064;-78
2023/10/24 07:01:16;;;;;;;4.85;1.73;;;16.60;99.90;;;;;;5038215;28;20057;-78
2023/10/24 07:03:42;;;;;;;8.18;2.15;;;16.60;99.90;;;;;;5041249;28;20504;-78
2023/10/24 07:06:10;;;;;;;6.68;2.03;;;16.60;99.90;;;;;;5039094;28;20488;-78
2023/10/24 07:08:36;;;;;;;5.60;2.00;;;16.60;99.90;;;;;;5040765;28;20036;-79
2023/10/24 07:11:02;;;;;;;8.10;2.50;;;16.60;99.90;;;;;;5037613;28;20028;-78
2023/10/24 07:13:29;;;;;;;4.15;2.17;;;16.60;99.90;;;;;;5045530;27;20489;-78
2023/10/24 07:15:54;;;;;;;5.35;2.67;;;16.60;99.90;;;;;;5049714;27;20074;-78
2023/10/24 07:18:20;;;;;;;5.32;2.30;;;16.60;99.90;;;;;;5038185;28;20271;-79
2023/10/24 07:20:46;;;;;;;3.03;2.10;;;16.60;99.90;;;;;;5041796;28;20025;-79
2023/10/24 07:23:12;;;;;;;7.07;2.13;;;16.60;99.90;;;;;;5037820;28;20027;-79
2023/10/24 07:25:37;;;;;;;7.43;2.30;;;16.60;99.90;;;;;;5040986;28;20440;-79
2023/10/24 07:28:05;;;;;;;5.45;2.08;;;16.60;99.90;;;;;;5037995;28;20025;-78
2023/10/24 07:30:31;;;;;;;7.88;2.63;;;16.60;99.90;;;;;;5040211;28;20052;-78
2023/10/24 07:32:57;;;;;;;10.00;2.90;;;16.60;99.90;;;;;;5037344;28;20025;-78
2023/10/24 07:35:23;;;;;;;5.45;2.03;;;16.60;99.90;;;;;;5039786;28;20028;-78
2023/10/24 07:37:49;;;;;;;4.05;2.33;;;16.60;99.90;;;;;;5038436;28;20033;-78
2023/10/24 07:40:16;;;;;;;5.00;2.05;;;16.70;99.90;;;;;;5037762;28;20129;-78
2023/10/24 07:42:41;;;;;;;5.72;2.28;;;16.70;99.90;;;;;;5040054;28;20028;-78
2023/10/24 07:45:08;;;;;;;4.07;1.73;;;16.70;99.90;;;;;;5037256;28;20177;-78
2023/10/24 07:47:34;;;;;;;2.67;1.75;;;16.70;99.90;;;;;;5039085;28;20032;-78
2023/10/24 07:49:59;;;;;;;4.18;1.92;;;16.70;99.90;;;;;;5038450;28;20037;-78
2023/10/24 07:52:25;;;;;;;6.97;2.63;;;16.70;99.90;;;;;;5038655;28;20079;-79
2023/10/24 07:54:51;;;;;;;10.57;2.97;;;16.70;99.90;;;;;;5035776;28;20025;-80
2023/10/24 07:57:16;;;;;;;5.35;2.40;;;16.70;99.90;;;;;;5037084;28;20108;-79
2023/10/24 07:59:42;;;;;;;2.60;2.00;;;16.70;99.90;;;;;;5037977;28;20425;-79
2023/10/24 08:02:08;;;;;;;5.18;2.15;;;16.70;99.90;;;;;;5038457;28;20036;-79
2023/10/24 08:04:34;;;;;;;4.82;1.98;;;16.70;99.90;;;;;;5038376;28;20071;-79
2023/10/24 08:07:01;;;;;;;5.53;2.30;;;16.70;99.90;;;;;;5036572;28;20078;-79
2023/10/24 08:09:27;;;;;;;2.03;1.83;;;16.70;99.90;;;;;;5040582;28;20029;-79
2023/10/24 08:11:52;;;;;;;6.13;2.40;;;16.70;99.90;;;;;;5038127;28;20025;-80
2023/10/24 08:14:18;;;;;;;6.28;2.00;;;16.70;99.90;;;;;;5033878;28;20116;-80
2023/10/24 08:16:43;;;;;;;5.55;2.22;;;16.70;99.90;;;;;;5037289;28;20025;-80
2023/10/24 08:19:09;;;;;;;3.88;1.58;;;16.70;99.90;;;;;;5039726;28;20063;-80
2023/10/24 08:21:35;;;;;;;2.63;2.20;;;16.70;99.90;;;;;;5037570;28;20033;-79
2023/10/24 08:24:01;;;;;;;5.97;2.15;;;16.70;99.90;;;;;;5039430;28;20032;-79
2023/10/24 08:26:26;;;;;;;2.78;1.73;;;16.70;99.90;;;;;;5038897;28;20033;-79
2023/10/24 08:28:53;;;;;;;3.83;1.88;;;16.70;99.90;;;;;;5036417;28;20025;-79
2023/10/24 08:31:19;;;;;;;3.78;1.90;;;16.70;99.90;;;;;;5044913;28;20025;-79
2023/10/24 08:33:44;;;;;;;6.55;1.92;;;16.70;99.90;;;;;;5037235;28;20545;-79
2023/10/24 08:36:10;;;;;;;8.05;2.20;;;16.70;99.90;;;;;;5037606;28;20068;-80
2023/10/24 08:38:36;;;;;;;5.63;2.50;;;16.70;99.90;;;;;;5038988;28;20021;-80
2023/10/24 08:41:03;;;;;;;4.65;2.38;;;16.70;99.90;;;;;;5037458;28;20021;-80
2023/10/24 08:43:29;;;;;;;6.88;2.80;;;16.70;99.90;;;;;;5040089;28;20024;-79
2023/10/24 08:45:55;;;;;;;3.45;2.28;;;16.70;99.90;;;;;;5040061;28;20025;-79
2023/10/24 08:48:21;;;;;;;6.18;2.67;;;16.70;99.90;;;;;;5037171;28;20434;-80
2023/10/24 08:50:47;;;;;;;7.65;2.72;;;16.70;99.90;;;;;;5038935;28;20120;-79
2023/10/24 08:53:14;;;;;;;6.40;3.45;;;16.70;99.90;;;;;;5036150;28;20104;-79
2023/10/24 08:55:47;;;;;;;4.90;3.78;;;16.70;99.90;;;;;;5038399;28;20476;-80
2023/10/24 08:58:16;;;;;;;14.80;6.15;;;16.70;99.90;;;;;;5038830;28;20053;-80
2023/10/24 09:00:43;;;;;;;10.40;5.35;;;16.70;99.90;;;;;;5017151;28;20045;-80
2023/10/24 09:03:10;;;;;;;5.90;3.17;;;16.70;99.90;;;;;;5039257;28;20032;-79
2023/10/24 09:05:38;;;;;;;2.53;2.33;;;16.70;99.90;;;;;;5038008;28;20030;-79
2023/10/24 09:08:05;;;;;;;6.13;2.47;;;16.70;99.90;;;;;;5035290;28;20021;-79
2023/10/24 09:10:31;;;;;;;4.63;3.05;;;16.80;99.90;;;;;;5033612;28;20094;-79
2023/10/24 09:12:57;;;;;;;8.02;2.92;;;16.80;99.90;;;;;;5037848;28;20025;-79
2023/10/24 09:15:23;;;;;;;6.68;2.78;;;16.80;99.90;;;;;;5036275;28;20028;-79
2023/10/24 09:17:49;;;;;;;3.42;2.25;;;16.80;99.90;;;;;;5035210;28;20028;-79
2023/10/24 09:20:18;;;;;;;5.10;2.63;;;16.80;99.90;;;;;;5038896;28;20025;-79
2023/10/24 09:22:44;;;;;;;6.32;2.67;;;16.90;99.90;;;;;;5036607;28;20026;-79
2023/10/24 09:25:10;;;;;;;1.67;1.33;;;16.90;99.90;;;;;;5037099;28;20025;-79
2023/10/24 09:27:36;;;;;;;1.60;1.40;;;16.80;99.90;;;;;;5038524;28;20032;-79
2023/10/24 09:30:12;;;;;;;4.00;1.50;;;16.90;99.90;;;;;;5034723;28;20403;-79
2023/10/24 09:32:41;;;;;;;4.43;1.95;;;16.90;99.90;;;;;;5034811;28;20108;-79
2023/10/24 09:35:08;;;;;;;2.25;1.60;;;17.00;99.90;;;;;;5035510;28;20021;-78
2023/10/24 09:37:37;;;;;;;2.63;1.40;;;17.00;99.90;;;;;;5033429;28;20082;-78
2023/10/24 09:40:04;;;;;;;2.05;1.40;;;16.90;99.90;;;;;;5037084;28;20400;-78
2023/10/24 09:42:31;;;;;;;5.50;3.28;;;17.00;99.90;;;;;;5030736;28;20017;-78
2023/10/24 09:45:04;;;;;;;10.13;5.65;;;17.00;99.90;;;;;;5035296;28;20052;-78
2023/10/24 09:47:33;;;;;;;8.10;4.90;;;17.00;99.90;;;;;;5039675;28;20033;-79
2023/10/24 09:49:59;;;;;;;12.75;5.50;;;17.00;99.90;;;;;;5037499;28;20042;-78
2023/10/24 09:52:29;;;;;;;8.52;5.50;;;17.00;99.90;;;;;;5036776;28;20056;-78
2023/10/24 09:54:57;;;;;;;5.05;2.80;;;17.00;99.90;;;;;;5036267;28;20017;-78
2023/10/24 09:57:23;;;;;;;2.45;1.83;;;17.00;99.90;;;;;;5034657;28;20418;-78
2023/10/24 09:59:59;;;;;;;4.07;1.80;;;17.00;99.90;;;;;;5035525;28;20030;-78
2023/10/24 10:02:26;;;;;;;4.38;2.10;;;17.00;99.90;;;;;;5033542;28;20026;-78
2023/10/24 10:04:52;;;;;;;3.53;1.70;;;17.00;99.90;;;;;;5036222;28;20074;-78
2023/10/24 10:07:18;;;;;;;1.70;1.60;;;17.00;99.90;;;;;;5039672;28;20033;-90
2023/10/24 10:09:54;;;;;;;3.95;1.90;;;17.10;99.90;;;;;;5039061;28;20029;-90
2023/10/24 10:12:20;;;;;;;2.33;2.03;;;17.00;99.90;;;;;;5037853;28;20048;-90
2023/10/24 10:15:04;;;;;;;2.38;1.40;;;17.10;99.90;;;;;;5036656;28;20041;-89
2023/10/24 10:17:42;;;;;;;1.60;1.50;;;17.10;99.90;;;;;;5044936;28;20026;-89
2023/10/24 10:20:20;;;;;;;1.50;1.40;;;17.10;99.90;;;;;;5035877;28;20295;-88
2023/10/24 10:22:51;;;;;;;2.40;1.50;;;17.10;99.90;;;;;;5041132;28;20032;-88
2023/10/24 10:25:37;;;;;;;2.47;1.60;;;17.10;99.90;;;;;;5039898;28;20029;-88
2023/10/24 10:28:18;;;;;;;3.50;1.60;;;17.10;99.90;;;;;;5019936;28;20048;-89
2023/10/24 10:30:56;;;;;;;3.88;2.00;;;17.10;99.90;;;;;;5039064;28;20038;-89
2023/10/24 10:33:24;;;;;;;2.63;1.92;;;17.10;99.90;;;;;;5039974;28;20112;-89
2023/10/24 10:35:56;;;;;;;2.72;2.40;;;17.10;99.90;;;;;;5042074;28;20500;-89
2023/10/24 10:38:44;;;;;;;3.47;2.03;;;17.10;99.90;;;;;;5040382;28;20061;-90
2023/10/24 10:41:22;;;;;;;4.78;2.42;;;17.10;99.90;;;;;;5039087;28;20033;-89
2023/10/24 10:43:59;;;;;;;2.30;2.10;;;17.20;99.90;;;;;;5039228;28;20101;-89
2023/10/24 10:46:30;;;;;;;2.33;2.10;;;17.20;99.90;;;;;;5041223;28;20029;-89
2023/10/24 10:48:58;;;;;;;2.70;2.28;;;17.20;99.90;;;;;;5038616;28;20022;-89
2023/10/24 10:51:28;;;;;;;2.95;2.75;;;17.20;99.90;;;;;;5040877;28;20050;-89
2023/10/24 10:54:17;;;;;;;4.78;3.38;;;17.20;99.90;;;;;;5042736;28;20013;-88
2023/10/24 10:56:45;;;;;;;4.32;3.47;;;17.20;99.90;;;;;;5039371;28;20369;-90
2023/10/24 10:59:42;;;;;;;3.90;3.50;;;17.20;99.90;;;;;;5043091;28;20037;-89
2023/10/24 11:02:29;;;;;;;4.82;3.42;;;17.20;99.90;;;;;;5036975;28;20477;-90
2023/10/24 11:04:55;;;;;;;3.47;2.42;;;17.20;99.90;;;;;;5021503;28;20029;-88
2023/10/24 11:07:50;;;;;;;4.90;3.50;;;17.20;99.90;;;;;;5041141;28;20025;-89
2023/10/24 11:10:16;;;;;;;4.70;4.28;;;17.30;99.90;;;;;;5041190;28;20070;-89
2023/10/24 11:12:48;;;;;;;6.45;5.35;;;17.30;99.90;;;;;;5039677;28;20056;-89
2023/10/24 11:15:14;;;;;;;;;;;17.30;99.90;;;;;;5040692;28;20017;-89
2023/10/24 11:17:40;;;;;;;5.50;5.03;;;17.30;99.90;;;;;;5040390;28;20012;-78
2023/10/24 11:20:08;;;;;;;4.00;2.80;;;17.30;99.90;;;;;;5037535;28;20548;-78
2023/10/24 11:22:35;;;;;;;3.13;2.10;;;17.30;99.90;;;;;;5053867;28;20423;-78
2023/10/24 11:25:11;;;;;;;1.98;1.80;;;17.30;99.90;;;;;;5038844;28;20040;-78
2023/10/24 11:27:38;;;;;;;1.77;1.63;;;17.40;99.90;;;;;;5037492;28;20419;-78
2023/10/24 11:30:04;;;;;;;1.55;1.45;;;17.40;99.90;;;;;;5039679;28;20052;-78
2023/10/24 11:32:30;;;;;;;3.00;1.17;;;17.40;99.90;;;;;;5038761;28;20018;-78
2023/10/24 11:34:56;;;;;;;1.88;1.10;;;17.40;99.90;;;;;;5038027;28;20036;-78
2023/10/24 11:37:22;;;;;;;2.60;1.27;;;17.40;99.90;;;;;;5040350;28;20082;-78
2023/10/24 11:39:48;;;;;;;2.08;1.75;;;17.50;99.90;;;;;;5040439;28;20396;-78
2023/10/24 11:42:14;;;;;;;4.00;2.38;;;17.40;99.90;;;;;;5038018;28;20489;-78
2023/10/24 11:44:40;;;;;;;1.40;0.98;;;17.40;99.90;;;;;;5021336;28;20022;-78
2023/10/24 11:47:07;;;;;;;1.45;0.90;;;17.50;99.90;;;;;;5039131;28;20032;-77
2023/10/24 11:49:36;;;;;;;3.08;1.30;;;17.50;99.90;;;;;;5040304;28;20411;-78
2023/10/24 11:52:04;;;;;;;3.10;2.25;;;17.50;99.90;;;;;;5038043;28;20070;-78
2023/10/24 11:54:30;;;;;;;2.28;1.15;;;17.50;99.90;;;;;;5038331;28;20396;-78
2023/10/24 11:56:56;;;;;;;4.30;1.13;;;17.50;99.90;;;;;;5036045;28;20108;-77
2023/10/24 11:59:22;;;;;;;3.25;0.98;;;17.50;99.90;;;;;;5041449;28;20480;-78
2023/10/24 12:01:50;;;;;;;1.25;0.90;;;17.50;99.90;;;;;;5038689;28;20032;-78
2023/10/24 12:04:16;;;;;;;1.08;1.02;;;17.50;99.90;;;;;;5038310;28;20451;-78
2023/10/24 12:06:42;;;;;;;1.77;1.08;;;17.50;99.90;;;;;;5039471;28;20124;-78
2023/10/24 12:09:07;;;;;;;2.72;1.20;;;17.60;99.90;;;;;;5034635;28;20025;-78
2023/10/24 12:11:34;;;;;;;1.73;1.30;;;17.60;99.90;;;;;;5039505;28;20035;-78
2023/10/24 12:14:00;;;;;;;2.60;1.52;;;17.70;99.90;;;;;;5037104;28;20469;-78
2023/10/24 12:16:34;;;;;;;2.97;1.63;;;17.70;99.90;;;;;;5038151;28;20056;-78
2023/10/24 12:19:00;;;;;;;3.40;1.58;;;17.70;99.90;;;;;;5033014;28;20037;-78
2023/10/24 12:21:26;;;;;;;2.20;1.38;;;17.80;99.90;;;;;;5038984;28;20058;-78
2023/10/24 12:23:52;;;;;;;3.00;2.60;;;17.80;99.90;;;;;;5037315;28;20033;-78
2023/10/24 12:26:17;;;;;;;5.20;3.58;;;17.80;99.90;;;;;;5036477;28;20025;-78
2023/10/24 12:28:43;;;;;;;6.75;5.72;;;17.80;99.90;;;;;;5030631;28;20473;-78
2023/10/24 12:31:10;;;;;;;10.57;6.72;;;17.80;99.90;;;;;;5035706;28;20113;-78
2023/10/24 12:33:36;;;;;;;7.30;6.15;;;17.70;99.90;;;;;;5037400;28;20032;-78
2023/10/24 12:36:03;;;;;;;7.03;6.13;;;17.70;99.90;;;;;;5027031;28;20913;-78
2023/10/24 12:38:29;;;;;;;6.72;6.00;;;17.60;99.90;;;;;;5043032;28;20076;-78
2023/10/24 12:40:55;;;;;;;9.52;5.63;;;17.50;99.90;;;;;;5034519;28;20110;-77
2023/10/24 12:43:21;;;;;;;8.57;5.35;;;17.60;99.90;;;;;;5035402;28;20861;-78
2023/10/24 12:45:46;;;;;;;7.25;4.93;;;17.60;99.90;;;;;;5033505;28;20396;-77